Terminal Aerodrome Forecast
Issued by NWS

Home | Current Version | Previous Version | Text Only | Print | Product List | Glossary On
Versions: 1 2 3 4 5 6 7 8 9 10 11 12
000
FTUS46 KSEW 231100
TAFCLM
TAF
KCLM 231132Z 2312/2412 VRB03KT P6SM -SHRA BKN040 OVC070
     FM231900 VRB03KT P6SM -SHRA BKN015 OVC030
     FM240200 28008KT P6SM SCT020 BKN030 OVC045=

USA.gov is the U.S. government's official web portal to all federal, state and local government web resources and services.